sensor_id;sensor_type;location;lat;lon;timestamp;pressure;altitude;pressure_sealevel;temperature;humidity
55187;BME280;55457;52.002;5.464;2023-02-28T00:00:38;102944.13;;;19.38;34.80
55187;BME280;55457;52.002;5.464;2023-02-28T00:03:04;102944.13;;;19.38;34.92
55187;BME280;55457;52.002;5.464;2023-02-28T00:05:29;102935.19;;;19.37;35.00
55187;BME280;55457;52.002;5.464;2023-02-28T00:07:55;102928.06;;;19.36;34.95
55187;BME280;55457;52.002;5.464;2023-02-28T00:10:22;102928.91;;;19.37;34.84
55187;BME280;55457;52.002;5.464;2023-02-28T00:12:48;102928.06;;;19.36;35.00
55187;BME280;55457;52.002;5.464;2023-02-28T00:15:13;102938.88;;;19.36;34.94
55187;BME280;55457;52.002;5.464;2023-02-28T00:17:39;102944.28;;;19.36;34.91
55187;BME280;55457;52.002;5.464;2023-02-28T00:20:05;102943.66;;;19.34;34.88
55187;BME280;55457;52.002;5.464;2023-02-28T00:22:35;102951.75;;;19.34;34.93
55187;BME280;55457;52.002;5.464;2023-02-28T00:25:00;102945.53;;;19.34;34.91
55187;BME280;55457;52.002;5.464;2023-02-28T00:27:25;102947.19;;;19.35;34.89
55187;BME280;55457;52.002;5.464;2023-02-28T00:29:51;102943.00;;;19.32;35.02
55187;BME280;55457;52.002;5.464;2023-02-28T00:32:16;102953.81;;;19.32;35.02
55187;BME280;55457;52.002;5.464;2023-02-28T00:34:42;102948.41;;;19.32;34.97
55187;BME280;55457;52.002;5.464;2023-02-28T00:37:09;102946.72;;;19.31;34.97
55187;BME280;55457;52.002;5.464;2023-02-28T00:39:35;102948.41;;;19.32;34.90
55187;BME280;55457;52.002;5.464;2023-02-28T00:42:01;102942.16;;;19.32;34.97
55187;BME280;55457;52.002;5.464;2023-02-28T00:44:27;102941.31;;;19.31;34.94
55187;BME280;55457;52.002;5.464;2023-02-28T00:46:52;102940.47;;;19.30;34.88
55187;BME280;55457;52.002;5.464;2023-02-28T00:49:19;102944.19;;;19.29;34.96
55187;BME280;55457;52.002;5.464;2023-02-28T00:51:44;102934.41;;;19.28;34.97
55187;BME280;55457;52.002;5.464;2023-02-28T00:54:09;102938.78;;;19.29;35.02
55187;BME280;55457;52.002;5.464;2023-02-28T00:56:34;102936.28;;;19.28;34.85
55187;BME280;55457;52.002;5.464;2023-02-28T00:58:59;102934.63;;;19.27;34.89
55187;BME280;55457;52.002;5.464;2023-02-28T01:01:25;102942.53;;;19.28;34.95
55187;BME280;55457;52.002;5.464;2023-02-28T01:03:50;102931.91;;;19.27;35.05
55187;BME280;55457;52.002;5.464;2023-02-28T01:06:15;102934.63;;;19.27;34.98
55187;BME280;55457;52.002;5.464;2023-02-28T01:08:40;102937.31;;;19.27;34.97
55187;BME280;55457;52.002;5.464;2023-02-28T01:11:09;102942.88;;;19.25;34.93
55187;BME280;55457;52.002;5.464;2023-02-28T01:13:35;102941.22;;;19.24;35.03
55187;BME280;55457;52.002;5.464;2023-02-28T01:16:00;102944.75;;;19.25;35.07
55187;BME280;55457;52.002;5.464;2023-02-28T01:18:26;102947.47;;;19.25;34.95
55187;BME280;55457;52.002;5.464;2023-02-28T01:20:51;102940.38;;;19.24;34.99
55187;BME280;55457;52.002;5.464;2023-02-28T01:23:17;102945.78;;;19.24;34.97
55187;BME280;55457;52.002;5.464;2023-02-28T01:25:43;102940.38;;;19.24;34.96
55187;BME280;55457;52.002;5.464;2023-02-28T01:28:08;102942.25;;;19.23;35.07
55187;BME280;55457;52.002;5.464;2023-02-28T01:30:33;102933.31;;;19.23;34.98
55187;BME280;55457;52.002;5.464;2023-02-28T01:32:59;102932.47;;;19.22;34.99
55187;BME280;55457;52.002;5.464;2023-02-28T01:35:24;102934.34;;;19.22;35.12
55187;BME280;55457;52.002;5.464;2023-02-28T01:37:49;102940.75;;;19.21;35.02
55187;BME280;55457;52.002;5.464;2023-02-28T01:40:15;102937.03;;;19.22;34.93
55187;BME280;55457;52.002;5.464;2023-02-28T01:42:40;102928.94;;;19.22;35.07
55187;BME280;55457;52.002;5.464;2023-02-28T01:47:32;102929.94;;;19.21;35.05
55187;BME280;55457;52.002;5.464;2023-02-28T01:49:58;102916.59;;;19.19;35.07
55187;BME280;55457;52.002;5.464;2023-02-28T01:52:24;102915.75;;;19.19;35.05
55187;BME280;55457;52.002;5.464;2023-02-28T01:54:51;102911.19;;;19.19;35.23
55187;BME280;55457;52.002;5.464;2023-02-28T01:57:18;102924.72;;;19.19;35.06
55187;BME280;55457;52.002;5.464;2023-02-28T01:59:52;102918.47;;;19.19;35.10
55187;BME280;55457;52.002;5.464;2023-02-28T02:02:20;102907.03;;;19.17;35.15
55187;BME280;55457;52.002;5.464;2023-02-28T02:04:50;102915.75;;;19.19;35.10
55187;BME280;55457;52.002;5.464;2023-02-28T02:07:16;102916.78;;;19.18;35.06
55187;BME280;55457;52.002;5.464;2023-02-28T02:09:42;102911.38;;;19.18;35.08
55187;BME280;55457;52.002;5.464;2023-02-28T02:12:18;102901.63;;;19.17;35.08
55187;BME280;55457;52.002;5.464;2023-02-28T02:14:50;102902.44;;;19.17;35.09
55187;BME280;55457;52.002;5.464;2023-02-28T02:17:26;102896.22;;;19.17;35.13
55187;BME280;55457;52.002;5.464;2023-02-28T02:28:04;102894.50;;;19.16;35.05
55187;BME280;55457;52.002;5.464;2023-02-28T02:43:25;102911.94;;;19.13;35.23
55187;BME280;55457;52.002;5.464;2023-02-28T02:45:55;102923.59;;;19.14;35.15
55187;BME280;55457;52.002;5.464;2023-02-28T02:48:24;102911.09;;;19.13;35.11
55187;BME280;55457;52.002;5.464;2023-02-28T02:50:51;102916.50;;;19.13;35.10
55187;BME280;55457;52.002;5.464;2023-02-28T02:53:18;102917.53;;;19.12;35.11
55187;BME280;55457;52.002;5.464;2023-02-28T02:55:46;102915.69;;;19.12;35.06
55187;BME280;55457;52.002;5.464;2023-02-28T02:58:15;102914.84;;;19.12;35.17
55187;BME280;55457;52.002;5.464;2023-02-28T03:00:43;102913.16;;;19.11;35.05
55187;BME280;55457;52.002;5.464;2023-02-28T03:03:12;102909.59;;;19.10;35.25
55187;BME280;55457;52.002;5.464;2023-02-28T03:05:56;102915.88;;;19.11;35.18
55187;BME280;55457;52.002;5.464;2023-02-28T03:08:22;102923.97;;;19.11;35.20
55187;BME280;55457;52.002;5.464;2023-02-28T03:10:51;102916.88;;;19.10;35.25
55187;BME280;55457;52.002;5.464;2023-02-28T03:13:36;102909.78;;;19.09;35.08
55187;BME280;55457;52.002;5.464;2023-02-28T03:21:31;102915.19;;;19.09;35.13
55187;BME280;55457;52.002;5.464;2023-02-28T03:26:25;102908.97;;;19.08;35.26
55187;BME280;55457;52.002;5.464;2023-02-28T03:32:03;102911.84;;;19.07;35.15
55187;BME280;55457;52.002;5.464;2023-02-28T03:34:26;102922.66;;;19.07;35.28
55187;BME280;55457;52.002;5.464;2023-02-28T03:36:55;102923.50;;;19.07;35.11
55187;BME280;55457;52.002;5.464;2023-02-28T03:39:24;102917.25;;;19.07;35.20
55187;BME280;55457;52.002;5.464;2023-02-28T03:42:02;102919.97;;;19.07;35.20
55187;BME280;55457;52.002;5.464;2023-02-28T03:44:35;102921.00;;;19.06;35.11
55187;BME280;55457;52.002;5.464;2023-02-28T03:47:13;102915.59;;;19.06;35.14
55187;BME280;55457;52.002;5.464;2023-02-28T03:49:46;102930.09;;;19.04;35.24
55187;BME280;55457;52.002;5.464;2023-02-28T03:52:14;102918.44;;;19.04;35.10
55187;BME280;55457;52.002;5.464;2023-02-28T03:54:44;102922.00;;;19.04;35.20
55187;BME280;55457;52.002;5.464;2023-02-28T03:57:22;102930.09;;;19.04;35.16
55187;BME280;55457;52.002;5.464;2023-02-28T03:59:54;102923.03;;;19.03;35.33
55187;BME280;55457;52.002;5.464;2023-02-28T04:02:21;102923.03;;;19.03;35.24
55187;BME280;55457;52.002;5.464;2023-02-28T04:04:46;102924.88;;;19.03;35.20
55187;BME280;55457;52.002;5.464;2023-02-28T04:07:15;102929.25;;;19.04;35.23
55187;BME280;55457;52.002;5.464;2023-02-28T04:09:40;102929.44;;;19.02;35.27
55187;BME280;55457;52.002;5.464;2023-02-28T04:12:06;102930.47;;;19.01;35.31
55187;BME280;55457;52.002;5.464;2023-02-28T04:14:31;102937.56;;;19.02;35.25
55187;BME280;55457;52.002;5.464;2023-02-28T04:16:56;102934.22;;;19.00;35.37
55187;BME280;55457;52.002;5.464;2023-02-28T04:19:22;102941.28;;;19.01;35.39
55187;BME280;55457;52.002;5.464;2023-02-28T04:21:48;102939.63;;;19.00;35.26
55187;BME280;55457;52.002;5.464;2023-02-28T04:24:20;102943.16;;;19.01;35.36
55187;BME280;55457;52.002;5.464;2023-02-28T04:26:47;102945.03;;;19.00;35.26
55187;BME280;55457;52.002;5.464;2023-02-28T04:29:14;102945.03;;;19.00;35.25
55187;BME280;55457;52.002;5.464;2023-02-28T04:31:39;102936.03;;;19.00;35.24
55187;BME280;55457;52.002;5.464;2023-02-28T04:34:04;102937.06;;;18.99;35.46
55187;BME280;55457;52.002;5.464;2023-02-28T04:36:30;102939.78;;;18.99;35.46
55187;BME280;55457;52.002;5.464;2023-02-28T04:38:55;102936.25;;;18.98;35.37
55187;BME280;55457;52.002;5.464;2023-02-28T04:41:20;102947.06;;;18.98;35.29
55187;BME280;55457;52.002;5.464;2023-02-28T04:43:46;102939.97;;;18.97;35.39
55187;BME280;55457;52.002;5.464;2023-02-28T04:46:11;102947.06;;;18.98;35.31
55187;BME280;55457;52.002;5.464;2023-02-28T04:48:37;102945.38;;;18.97;35.34
55187;BME280;55457;52.002;5.464;2023-02-28T04:51:04;102943.50;;;18.98;35.41
55187;BME280;55457;52.002;5.464;2023-02-28T04:53:29;102936.63;;;18.95;35.39
55187;BME280;55457;52.002;5.464;2023-02-28T04:55:55;102945.38;;;18.97;35.45
55187;BME280;55457;52.002;5.464;2023-02-28T04:58:20;102949.09;;;18.96;35.31
55187;BME280;55457;52.002;5.464;2023-02-28T05:00:48;102951.81;;;18.96;35.31
55187;BME280;55457;52.002;5.464;2023-02-28T05:03:13;102940.31;;;18.94;35.37
55187;BME280;55457;52.002;5.464;2023-02-28T05:05:38;102945.72;;;18.94;35.41
55187;BME280;55457;52.002;5.464;2023-02-28T05:08:03;102956.53;;;18.94;35.50
55187;BME280;55457;52.002;5.464;2023-02-28T05:10:30;102944.91;;;18.94;35.34
55187;BME280;55457;52.002;5.464;2023-02-28T05:12:55;102946.75;;;18.93;35.40
55187;BME280;55457;52.002;5.464;2023-02-28T05:15:20;102947.78;;;18.92;35.40
55187;BME280;55457;52.002;5.464;2023-02-28T05:17:46;102954.03;;;18.93;35.36
55187;BME280;55457;52.002;5.464;2023-02-28T05:20:12;102938.66;;;18.93;35.41
55187;BME280;55457;52.002;5.464;2023-02-28T05:22:38;102947.78;;;18.92;35.35
55187;BME280;55457;52.002;5.464;2023-02-28T05:25:04;102946.13;;;18.91;35.44
55187;BME280;55457;52.002;5.464;2023-02-28T05:27:30;102947.78;;;18.92;35.30
55187;BME280;55457;52.002;5.464;2023-02-28T05:29:55;102952.53;;;18.90;35.49
55187;BME280;55457;52.002;5.464;2023-02-28T05:32:20;102955.25;;;18.90;35.55
55187;BME280;55457;52.002;5.464;2023-02-28T05:34:46;102946.13;;;18.91;35.41
55187;BME280;55457;52.002;5.464;2023-02-28T05:37:14;102951.50;;;18.91;35.46
55187;BME280;55457;52.002;5.464;2023-02-28T05:39:40;102947.97;;;18.91;35.48
55187;BME280;55457;52.002;5.464;2023-02-28T05:42:06;102947.16;;;18.90;35.36
55187;BME280;55457;52.002;5.464;2023-02-28T05:44:31;102946.47;;;18.88;35.36
55187;BME280;55457;52.002;5.464;2023-02-28T05:46:56;102949.00;;;18.90;35.49
55187;BME280;55457;52.002;5.464;2023-02-28T05:49:22;102950.84;;;18.89;35.48
55187;BME280;55457;52.002;5.464;2023-02-28T05:51:47;102945.63;;;18.88;35.50
55187;BME280;55457;52.002;5.464;2023-02-28T05:54:12;102941.06;;;18.88;35.48
55187;BME280;55457;52.002;5.464;2023-02-28T05:56:38;102954.56;;;18.88;35.43
55187;BME280;55457;52.002;5.464;2023-02-28T05:59:05;102954.56;;;18.88;35.48
55187;BME280;55457;52.002;5.464;2023-02-28T06:01:31;102961.84;;;18.88;35.49
55187;BME280;55457;52.002;5.464;2023-02-28T06:03:58;102948.13;;;18.89;35.33
55187;BME280;55457;52.002;5.464;2023-02-28T06:06:23;102951.22;;;18.86;35.51
55187;BME280;55457;52.002;5.464;2023-02-28T06:08:48;102952.91;;;18.87;35.39
55187;BME280;55457;52.002;5.464;2023-02-28T06:11:13;102954.75;;;18.87;35.46
55187;BME280;55457;52.002;5.464;2023-02-28T06:13:39;102947.69;;;18.86;35.50
55187;BME280;55457;52.002;5.464;2023-02-28T06:16:04;102939.59;;;18.86;35.39
55187;BME280;55457;52.002;5.464;2023-02-28T06:18:29;102947.69;;;18.86;35.53
55187;BME280;55457;52.002;5.464;2023-02-28T06:20:55;102945.81;;;18.86;35.58
55187;BME280;55457;52.002;5.464;2023-02-28T06:23:20;102939.75;;;18.84;35.40
55187;BME280;55457;52.002;5.464;2023-02-28T06:25:46;102938.75;;;18.85;35.51
55187;BME280;55457;52.002;5.464;2023-02-28T06:28:11;102941.59;;;18.84;35.47
55187;BME280;55457;52.002;5.464;2023-02-28T06:30:37;102937.03;;;18.84;35.39
55187;BME280;55457;52.002;5.464;2023-02-28T06:33:02;102944.31;;;18.84;35.54
55187;BME280;55457;52.002;5.464;2023-02-28T06:35:27;102937.03;;;18.84;35.56
55187;BME280;55457;52.002;5.464;2023-02-28T06:37:52;102932.66;;;18.83;35.53
55187;BME280;55457;52.002;5.464;2023-02-28T06:40:18;102936.41;;;18.82;35.48
55187;BME280;55457;52.002;5.464;2023-02-28T06:42:43;102941.78;;;18.82;35.54
55187;BME280;55457;52.002;5.464;2023-02-28T06:45:09;102943.66;;;18.82;35.42
55187;BME280;55457;52.002;5.464;2023-02-28T06:47:38;102941.78;;;18.82;35.52
55187;BME280;55457;52.002;5.464;2023-02-28T06:50:04;102949.91;;;18.82;35.58
55187;BME280;55457;52.002;5.464;2023-02-28T06:52:29;102957.16;;;18.82;35.39
55187;BME280;55457;52.002;5.464;2023-02-28T06:54:55;102949.25;;;18.80;35.49
55187;BME280;55457;52.002;5.464;2023-02-28T06:57:25;102943.84;;;18.80;35.55
55187;BME280;55457;52.002;5.464;2023-02-28T06:59:50;102949.25;;;18.80;35.55
55187;BME280;55457;52.002;5.464;2023-02-28T07:02:15;102948.22;;;18.81;35.41
55187;BME280;55457;52.002;5.464;2023-02-28T07:04:40;102956.34;;;18.81;35.59
55187;BME280;55457;52.002;5.464;2023-02-28T07:07:09;102952.78;;;18.81;35.59
55187;BME280;55457;52.002;5.464;2023-02-28T07:09:34;102959.22;;;18.80;35.56
55187;BME280;55457;52.002;5.464;2023-02-28T07:11:59;102959.22;;;18.80;35.58
55187;BME280;55457;52.002;5.464;2023-02-28T07:14:25;102965.47;;;18.80;35.58
55187;BME280;55457;52.002;5.464;2023-02-28T07:16:51;102958.34;;;18.79;35.43
55187;BME280;55457;52.002;5.464;2023-02-28T07:19:16;102966.47;;;18.79;35.59
55187;BME280;55457;52.002;5.464;2023-02-28T07:21:41;102958.34;;;18.79;35.49
55187;BME280;55457;52.002;5.464;2023-02-28T07:24:06;102968.31;;;18.78;35.48
55187;BME280;55457;52.002;5.464;2023-02-28T07:26:32;102966.47;;;18.79;35.50
55187;BME280;55457;52.002;5.464;2023-02-28T07:28:59;102962.91;;;18.78;35.63
55187;BME280;55457;52.002;5.464;2023-02-28T07:31:24;102965.63;;;18.78;35.53
55187;BME280;55457;52.002;5.464;2023-02-28T07:33:49;102962.09;;;18.78;35.62
55187;BME280;55457;52.002;5.464;2023-02-28T07:36:16;102972.06;;;18.77;35.55
55187;BME280;55457;52.002;5.464;2023-02-28T07:38:43;102979.31;;;18.77;35.62
55187;BME280;55457;52.002;5.464;2023-02-28T07:41:08;102970.38;;;18.76;35.54
55187;BME280;55457;52.002;5.464;2023-02-28T07:43:34;102972.88;;;18.78;35.58
55187;BME280;55457;52.002;5.464;2023-02-28T07:46:10;102966.66;;;18.77;35.65
55187;BME280;55457;52.002;5.464;2023-02-28T07:48:35;102971.22;;;18.77;35.55
55187;BME280;55457;52.002;5.464;2023-02-28T07:51:01;102973.91;;;18.77;35.60
55187;BME280;55457;52.002;5.464;2023-02-28T07:53:27;102976.63;;;18.77;35.46
55187;BME280;55457;52.002;5.464;2023-02-28T07:55:56;102981.00;;;18.78;35.58
55187;BME280;55457;52.002;5.464;2023-02-28T07:58:21;102990.13;;;18.77;35.65
55187;BME280;55457;52.002;5.464;2023-02-28T08:00:46;102989.09;;;18.78;35.63
55187;BME280;55457;52.002;5.464;2023-02-28T08:03:12;102983.69;;;18.78;35.56
55187;BME280;55457;52.002;5.464;2023-02-28T08:05:38;102986.59;;;18.76;35.58
55187;BME280;55457;52.002;5.464;2023-02-28T08:08:03;102994.50;;;18.78;35.63
55187;BME280;55457;52.002;5.464;2023-02-28T08:10:28;102990.97;;;18.77;35.53
55187;BME280;55457;52.002;5.464;2023-02-28T08:12:54;102982.03;;;18.77;35.56
55187;BME280;55457;52.002;5.464;2023-02-28T08:15:19;102994.50;;;18.78;35.44
55187;BME280;55457;52.002;5.464;2023-02-28T08:17:44;102985.56;;;18.77;35.62
55187;BME280;55457;52.002;5.464;2023-02-28T08:20:09;102994.50;;;18.78;35.56
55187;BME280;55457;52.002;5.464;2023-02-28T08:22:35;102993.66;;;18.77;35.61
55187;BME280;55457;52.002;5.464;2023-02-28T08:25:00;102990.78;;;18.79;35.61
55187;BME280;55457;52.002;5.464;2023-02-28T08:27:26;102994.50;;;18.78;35.67
55187;BME280;55457;52.002;5.464;2023-02-28T08:29:51;102990.13;;;18.77;35.56
55187;BME280;55457;52.002;5.464;2023-02-28T08:32:16;102995.53;;;18.77;35.65
55187;BME280;55457;52.002;5.464;2023-02-28T08:34:41;103000.94;;;18.77;35.72
55187;BME280;55457;52.002;5.464;2023-02-28T08:37:06;102998.22;;;18.77;35.65
55187;BME280;55457;52.002;5.464;2023-02-28T08:39:35;102997.41;;;18.76;35.62
55187;BME280;55457;52.002;5.464;2023-02-28T08:42:01;103005.50;;;18.76;35.57
55187;BME280;55457;52.002;5.464;2023-02-28T08:44:26;102995.53;;;18.77;35.61
55187;BME280;55457;52.002;5.464;2023-02-28T08:46:52;102991.16;;;18.76;35.70
55187;BME280;55457;52.002;5.464;2023-02-28T08:49:17;102991.16;;;18.76;35.64
55187;BME280;55457;52.002;5.464;2023-02-28T08:51:43;102992.00;;;18.76;35.68
55187;BME280;55457;52.002;5.464;2023-02-28T08:54:08;102993.03;;;18.75;35.75
55187;BME280;55457;52.002;5.464;2023-02-28T08:56:35;102996.56;;;18.76;35.69
55187;BME280;55457;52.002;5.464;2023-02-28T08:59:01;102997.41;;;18.76;35.63
55187;BME280;55457;52.002;5.464;2023-02-28T09:01:27;102980.34;;;18.76;35.68
55187;BME280;55457;52.002;5.464;2023-02-28T09:03:53;102982.03;;;18.77;35.58
55187;BME280;55457;52.002;5.464;2023-02-28T09:06:20;102990.13;;;18.77;35.70
55187;BME280;55457;52.002;5.464;2023-02-28T09:08:45;102989.09;;;18.78;35.65
55187;BME280;55457;52.002;5.464;2023-02-28T09:11:10;102989.78;;;18.80;35.66
55187;BME280;55457;52.002;5.464;2023-02-28T09:13:36;103004.56;;;18.84;35.61
55187;BME280;55457;52.002;5.464;2023-02-28T09:16:02;102990.06;;;18.85;35.71
55187;BME280;55457;52.002;5.464;2023-02-28T09:18:28;102992.25;;;18.90;35.51
55187;BME280;55457;52.002;5.464;2023-02-28T09:20:54;102997.38;;;18.99;35.64
55187;BME280;55457;52.002;5.464;2023-02-28T09:23:19;102990.88;;;19.09;35.61
55187;BME280;55457;52.002;5.464;2023-02-28T09:25:46;102994.25;;;19.11;35.69
55187;BME280;55457;52.002;5.464;2023-02-28T09:28:11;102993.22;;;19.12;35.50
55187;BME280;55457;52.002;5.464;2023-02-28T09:30:37;102991.53;;;19.11;35.52
55187;BME280;55457;52.002;5.464;2023-02-28T09:33:02;102995.94;;;19.12;35.44
55187;BME280;55457;52.002;5.464;2023-02-28T09:35:28;102999.66;;;19.11;35.55
55187;BME280;55457;52.002;5.464;2023-02-28T09:37:53;102997.78;;;19.11;35.38
55187;BME280;55457;52.002;5.464;2023-02-28T09:40:19;102994.25;;;19.11;35.31
55187;BME280;55457;52.002;5.464;2023-02-28T09:42:46;102998.78;;;19.10;35.24
55187;BME280;55457;52.002;5.464;2023-02-28T09:45:16;103004.03;;;19.12;35.34
55187;BME280;55457;52.002;5.464;2023-02-28T09:47:45;102997.59;;;19.13;35.40
55187;BME280;55457;52.002;5.464;2023-02-28T09:50:17;103007.03;;;19.17;35.51
55187;BME280;55457;52.002;5.464;2023-02-28T09:52:44;102993.81;;;19.22;35.55
55187;BME280;55457;52.002;5.464;2023-02-28T09:57:52;102994.09;;;19.27;35.51
55187;BME280;55457;52.002;5.464;2023-02-28T10:00:39;103001.16;;;19.28;35.41
55187;BME280;55457;52.002;5.464;2023-02-28T10:08:19;102992.78;;;19.23;35.43
55187;BME280;55457;52.002;5.464;2023-02-28T10:11:00;102992.22;;;19.27;35.40
55187;BME280;55457;52.002;5.464;2023-02-28T10:15:56;102993.25;;;19.41;35.27
55187;BME280;55457;52.002;5.464;2023-02-28T10:18:31;102991.38;;;19.56;35.47
55187;BME280;55457;52.002;5.464;2023-02-28T10:21:00;102981.00;;;19.68;35.35
55187;BME280;55457;52.002;5.464;2023-02-28T10:23:27;102982.19;;;19.80;35.34
55187;BME280;55457;52.002;5.464;2023-02-28T10:26:00;102982.53;;;19.92;35.21
55187;BME280;55457;52.002;5.464;2023-02-28T10:28:26;102981.03;;;20.04;35.01
55187;BME280;55457;52.002;5.464;2023-02-28T10:30:52;102974.31;;;20.15;34.89
55187;BME280;55457;52.002;5.464;2023-02-28T10:33:28;102973.97;;;20.25;34.79
55187;BME280;55457;52.002;5.464;2023-02-28T10:35:55;102973.50;;;20.36;34.67
55187;BME280;55457;52.002;5.464;2023-02-28T10:38:21;102981.28;;;20.46;34.55
55187;BME280;55457;52.002;5.464;2023-02-28T10:40:47;102978.69;;;20.52;34.48
55187;BME280;55457;52.002;5.464;2023-02-28T10:45:37;102971.34;;;20.68;34.38
55187;BME280;55457;52.002;5.464;2023-02-28T10:53:05;102987.59;;;20.89;34.14
55187;BME280;55457;52.002;5.464;2023-02-28T10:55:32;102984.09;;;20.95;34.05
55187;BME280;55457;52.002;5.464;2023-02-28T10:57:57;102977.03;;;21.01;34.03
55187;BME280;55457;52.002;5.464;2023-02-28T11:00:24;102968.13;;;21.07;33.83
55187;BME280;55457;52.002;5.464;2023-02-28T11:02:52;102969.00;;;21.14;33.80
55187;BME280;55457;52.002;5.464;2023-02-28T11:07:53;102961.16;;;21.26;34.00
55187;BME280;55457;52.002;5.464;2023-02-28T11:10:19;102954.97;;;21.32;33.90
55187;BME280;55457;52.002;5.464;2023-02-28T11:12:46;102963.16;;;21.39;33.80
55187;BME280;55457;52.002;5.464;2023-02-28T11:17:52;102960.72;;;21.50;33.75
55187;BME280;55457;52.002;5.464;2023-02-28T11:20:21;102952.81;;;21.55;33.52
55187;BME280;55457;52.002;5.464;2023-02-28T11:22:48;102953.69;;;21.62;33.66
55187;BME280;55457;52.002;5.464;2023-02-28T11:25:23;102940.53;;;21.66;33.47
55187;BME280;55457;52.002;5.464;2023-02-28T11:27:51;102947.91;;;21.72;33.47
55187;BME280;55457;52.002;5.464;2023-02-28T11:30:23;102946.25;;;21.78;33.45
55187;BME280;55457;52.002;5.464;2023-02-28T11:32:49;102950.03;;;21.83;33.61
55187;BME280;55457;52.002;5.464;2023-02-28T11:35:17;102945.88;;;21.87;33.47
55187;BME280;55457;52.002;5.464;2023-02-28T11:37:47;102936.09;;;21.93;33.42
55187;BME280;55457;52.002;5.464;2023-02-28T11:40:17;102932.56;;;21.99;33.49
55187;BME280;55457;52.002;5.464;2023-02-28T11:42:49;102929.41;;;22.02;33.15
55187;BME280;55457;52.002;5.464;2023-02-28T11:45:31;102933.19;;;22.08;33.43
55187;BME280;55457;52.002;5.464;2023-02-28T11:48:04;102925.50;;;22.11;33.18
55187;BME280;55457;52.002;5.464;2023-02-28T11:56:17;102923.84;;;22.24;32.95
55187;BME280;55457;52.002;5.464;2023-02-28T11:58:57;102918.00;;;22.27;33.12
55187;BME280;55457;52.002;5.464;2023-02-28T12:04:16;102913.22;;;22.35;32.93
55187;BME280;55457;52.002;5.464;2023-02-28T12:06:48;102911.56;;;22.41;32.75
55187;BME280;55457;52.002;5.464;2023-02-28T12:14:19;102910.31;;;22.50;32.87
55187;BME280;55457;52.002;5.464;2023-02-28T12:16:54;102905.72;;;22.57;33.11
55187;BME280;55457;52.002;5.464;2023-02-28T12:19:26;102910.75;;;22.60;32.89
55187;BME280;55457;52.002;5.464;2023-02-28T12:22:03;102903.81;;;22.64;32.94
55187;BME280;55457;52.002;5.464;2023-02-28T12:27:02;102891.28;;;22.70;32.90
55187;BME280;55457;52.002;5.464;2023-02-28T12:29:29;102902.56;;;22.74;32.71
55187;BME280;55457;52.002;5.464;2023-02-28T12:31:59;102897.75;;;22.76;32.90
55187;BME280;55457;52.002;5.464;2023-02-28T12:34:31;102886.47;;;22.79;32.94
55187;BME280;55457;52.002;5.464;2023-02-28T12:36:58;102896.09;;;22.81;32.82
55187;BME280;55457;52.002;5.464;2023-02-28T12:39:26;102900.28;;;22.84;32.65
55187;BME280;55457;52.002;5.464;2023-02-28T12:41:55;102889.19;;;22.85;32.65
55187;BME280;55457;52.002;5.464;2023-02-28T12:44:23;102882.53;;;22.88;32.60
55187;BME280;55457;52.002;5.464;2023-02-28T12:46:51;102885.84;;;22.90;32.56
55187;BME280;55457;52.002;5.464;2023-02-28T12:49:27;102889.22;;;22.92;32.75
55187;BME280;55457;52.002;5.464;2023-02-28T12:51:56;102892.56;;;22.94;32.87
55187;BME280;55457;52.002;5.464;2023-02-28T12:59:23;102885.66;;;22.98;32.73
55187;BME280;55457;52.002;5.464;2023-02-28T13:02:00;102879.16;;;22.99;32.75
55187;BME280;55457;52.002;5.464;2023-02-28T13:04:47;102870.78;;;23.01;32.48
55187;BME280;55457;52.002;5.464;2023-02-28T13:09:56;102870.38;;;23.04;32.45
55187;BME280;55457;52.002;5.464;2023-02-28T13:12:23;102875.59;;;23.05;32.43
55187;BME280;55457;52.002;5.464;2023-02-28T13:14:49;102869.09;;;23.06;32.56
55187;BME280;55457;52.002;5.464;2023-02-28T13:17:20;102864.28;;;23.08;32.58
55187;BME280;55457;52.002;5.464;2023-02-28T13:19:55;102863.25;;;23.09;32.39
55187;BME280;55457;52.002;5.464;2023-02-28T13:24:53;102854.63;;;23.12;32.67
55187;BME280;55457;52.002;5.464;2023-02-28T13:29:48;102861.56;;;23.15;32.33
55187;BME280;55457;52.002;5.464;2023-02-28T13:40:22;102853.16;;;23.16;32.29
55187;BME280;55457;52.002;5.464;2023-02-28T13:42:51;102846.06;;;23.15;32.34
55187;BME280;55457;52.002;5.464;2023-02-28T13:48:01;102848.78;;;23.15;32.40
55187;BME280;55457;52.002;5.464;2023-02-28T13:52:56;102838.13;;;23.14;32.42
55187;BME280;55457;52.002;5.464;2023-02-28T13:55:27;102845.22;;;23.15;32.51
55187;BME280;55457;52.002;5.464;2023-02-28T14:00:31;102831.84;;;23.13;32.48
55187;BME280;55457;52.002;5.464;2023-02-28T14:03:12;102827.44;;;23.12;32.60
55187;BME280;55457;52.002;5.464;2023-02-28T14:05:41;102830.16;;;23.12;32.39
55187;BME280;55457;52.002;5.464;2023-02-28T14:08:24;102820.34;;;23.11;32.60
55187;BME280;55457;52.002;5.464;2023-02-28T14:11:03;102819.28;;;23.12;32.59
55187;BME280;55457;52.002;5.464;2023-02-28T14:16:09;102824.94;;;23.11;32.44
55187;BME280;55457;52.002;5.464;2023-02-28T14:18:38;102815.13;;;23.10;32.27
55187;BME280;55457;52.002;5.464;2023-02-28T14:26:14;102821.38;;;23.10;32.47
55187;BME280;55457;52.002;5.464;2023-02-28T14:31:11;102818.06;;;23.08;32.11
55187;BME280;55457;52.002;5.464;2023-02-28T14:36:22;102810.09;;;23.07;32.46
55187;BME280;55457;52.002;5.464;2023-02-28T14:38:53;102814.69;;;23.06;32.32
55187;BME280;55457;52.002;5.464;2023-02-28T14:41:21;102810.31;;;23.05;32.29
55187;BME280;55457;52.002;5.464;2023-02-28T14:43:51;102814.09;;;23.04;32.20
55187;BME280;55457;52.002;5.464;2023-02-28T14:46:16;102809.72;;;23.03;32.43